Time;durP1;ratioP1;P1;durP2;ratioP2;P2;SDS_P1;SDS_P2;PMS_P1;PMS_P2;Temp;Humidity;BMP_temperature;BMP_pressure;BME280_temperature;BME280_humidity;BME280_pressure;Samples;Min_cycle;Max_cycle;Signal;HPM_P1;HPM_P2
2022/04/20 00:00:38;;;;;;;2.10;1.90;;;;;;;10.61;67.38;95551.56;5100689;28;20280;-80
2022/04/20 00:03:06;;;;;;;3.97;1.80;;;;;;;10.52;66.56;95553.06;5094677;28;20203;-80
2022/04/20 00:05:33;;;;;;;1.57;1.47;;;;;;;10.47;66.41;95550.28;5107192;27;20245;-80
2022/04/20 00:08:01;;;;;;;3.07;1.90;;;;;;;10.40;66.95;95552.34;5109327;27;20210;-80
2022/04/20 00:10:30;;;;;;;3.10;1.97;;;;;;;10.37;68.22;95549.34;5101437;27;20196;-80
2022/04/20 00:12:58;;;;;;;3.43;2.00;;;;;;;10.48;68.81;95545.69;5114875;27;20215;-81
2022/04/20 00:15:25;;;;;;;2.70;1.70;;;;;;;10.47;68.35;95544.06;5097257;27;20295;-81
2022/04/20 00:17:52;;;;;;;3.67;1.70;;;;;;;10.53;68.43;95541.19;5102433;28;20289;-80
2022/04/20 00:20:20;;;;;;;2.90;1.57;;;;;;;10.55;66.89;95549.03;5096692;28;20212;-81
2022/04/20 00:22:46;;;;;;;2.00;1.80;;;;;;;10.55;66.43;95552.53;5097479;28;20227;-81
2022/04/20 00:25:14;;;;;;;3.07;1.90;;;;;;;10.57;68.05;95547.72;5102442;27;20235;-81
2022/04/20 00:27:42;;;;;;;2.00;1.80;;;;;;;10.54;67.79;95550.94;5096950;28;20317;-80
2022/04/20 00:30:12;;;;;;;3.87;1.93;;;;;;;10.48;69.46;95546.50;5114608;27;20197;-81
2022/04/20 00:32:41;;;;;;;2.57;1.80;;;;;;;10.54;68.74;95548.25;5103112;28;20216;-81
2022/04/20 00:35:09;;;;;;;2.87;1.90;;;;;;;10.52;68.95;95550.38;5094029;28;20204;-80
2022/04/20 00:37:36;;;;;;;2.20;2.00;;;;;;;10.53;68.34;95551.19;5102203;28;20235;-81
2022/04/20 00:40:05;;;;;;;2.20;1.93;;;;;;;10.49;67.85;95550.84;5104885;27;20199;-81
2022/04/20 00:42:32;;;;;;;1.90;1.80;;;;;;;10.47;68.95;95547.56;5099966;28;20233;-81
2022/04/20 00:45:01;;;;;;;1.70;1.60;;;;;;;10.40;69.91;95538.84;5099922;28;20199;-81
2022/04/20 00:47:30;;;;;;;2.37;1.70;;;;;;;10.39;69.07;95537.22;5101465;28;20273;-80
2022/04/20 00:49:58;;;;;;;2.27;1.70;;;;;;;10.39;69.93;95537.22;5098471;28;20322;-81
2022/04/20 00:52:25;;;;;;;2.33;1.60;;;;;;;10.42;68.73;95539.41;5097485;28;20234;-81
2022/04/20 00:54:52;;;;;;;2.13;1.70;;;;;;;10.48;68.93;95543.81;5090723;28;20205;-81
2022/04/20 00:57:20;;;;;;;4.03;1.90;;;;;;;10.49;68.50;95536.53;5096906;28;20214;-81
2022/04/20 00:59:49;;;;;;;1.93;1.80;;;;;;;10.65;67.22;95541.06;5089394;28;20302;-81
2022/04/20 01:02:19;;;;;;;2.07;1.60;;;;;;;10.59;67.10;95540.19;5102193;28;20211;-81
2022/04/20 01:04:49;;;;;;;1.87;1.57;;;;;;;10.66;68.10;95541.88;5097639;28;20208;-81
2022/04/20 01:07:37;;;;;;;1.83;1.70;;;;;;;10.57;67.39;95545.03;5093680;28;20215;-80
2022/04/20 01:10:33;;;;;;;1.93;1.50;;;;;;;10.49;67.64;95537.34;5027551;28;20329;-81
2022/04/20 01:13:32;;;;;;;2.60;1.80;;;;;;;10.43;68.13;95540.25;5105366;28;20200;-81
2022/04/20 01:16:32;;;;;;;4.87;2.00;;;;;;;10.37;70.06;95531.25;5063589;28;20247;-80
2022/04/20 01:19:17;;;;;;;2.17;1.97;;;;;;;10.34;71.41;95537.16;5101155;28;20204;-81
2022/04/20 01:21:45;;;;;;;3.70;2.20;;;;;;;10.34;71.25;95537.16;5104573;28;20326;-81
2022/04/20 01:24:33;;;;;;;2.47;1.80;;;;;;;10.35;72.18;95537.97;5095363;28;20270;-81
2022/04/20 01:27:24;;;;;;;2.53;1.77;;;;;;;10.28;72.02;95532.75;5077165;28;20204;-81
2022/04/20 01:30:04;;;;;;;2.43;1.43;;;;;;;10.20;72.99;95527.78;5112992;27;20204;-81
2022/04/20 01:32:41;;;;;;;2.43;1.70;;;;;;;10.18;73.55;95529.91;5105522;27;20270;-81
2022/04/20 01:35:11;;;;;;;2.23;1.70;;;;;;;10.18;73.28;95532.59;5102557;27;20200;-81
2022/04/20 01:37:40;;;;;;;2.00;1.83;;;;;;;10.18;73.33;95532.59;5121261;27;20273;-81
2022/04/20 01:40:09;;;;;;;2.47;1.77;;;;;;;10.17;72.73;95526.38;5102670;27;20283;-81
2022/04/20 01:42:36;;;;;;;3.13;2.07;;;;;;;10.13;73.42;95521.69;5102569;27;20208;-81
2022/04/20 01:45:07;;;;;;;2.23;1.80;;;;;;;10.11;73.60;95526.53;5106755;27;20195;-81
2022/04/20 01:47:52;;;;;;;2.07;1.83;;;;;;;9.95;75.51;95524.66;5102291;27;20353;-81
2022/04/20 01:51:46;;;;;;;1.80;1.70;;;;;;;9.85;76.39;95518.06;5107640;27;20210;-81
2022/04/20 01:53:45;;;;;;;1.80;1.70;;;;;;;9.78;76.42;95517.38;5098072;27;20223;-81
2022/04/20 01:56:35;;;;;;;2.40;1.60;;;;;;;9.81;75.98;95522.28;5102813;27;20212;-81
2022/04/20 01:59:23;;;;;;;2.10;1.90;;;;;;;9.82;75.61;95523.94;5092335;27;20204;-81
2022/04/20 02:04:54;;;;;;;2.17;1.97;;;;;;;9.76;76.88;95524.91;5101601;27;20200;-81
2022/04/20 02:07:22;;;;;;;3.53;2.00;;;;;;;9.73;77.03;95530.78;5104860;27;20325;-81
2022/04/20 02:09:50;;;;;;;3.07;2.10;;;;;;;9.75;77.58;95527.84;5100193;28;20215;-80
2022/04/20 02:12:19;;;;;;;2.90;1.80;;;;;;;9.70;78.01;95525.06;5103777;28;20507;-81
2022/04/20 02:15:07;;;;;;;2.30;2.10;;;;;;;9.65;77.94;95523.09;5107136;27;20199;-80
2022/04/20 02:17:57;;;;;;;4.03;2.10;;;;;;;9.68;78.18;95530.72;5103056;28;20212;-81
2022/04/20 02:20:34;;;;;;;3.13;2.20;;;;;;;9.70;78.50;95531.25;5100198;27;20196;-80
2022/04/20 02:23:01;;;;;;;3.67;2.00;;;;;;;9.67;78.54;95526.38;5093739;28;20201;-81
2022/04/20 02:25:30;;;;;;;2.50;1.80;;;;;;;9.69;79.10;95528.84;5102931;28;20200;-81
2022/04/20 02:27:57;;;;;;;2.50;1.90;;;;;;;9.68;77.60;95536.09;5099989;27;20294;-81
2022/04/20 02:30:24;;;;;;;2.43;2.13;;;;;;;9.59;78.17;95534.88;5117615;27;20332;-81
2022/04/20 02:32:51;;;;;;;2.33;1.90;;;;;;;9.44;78.27;95534.63;5112308;27;20224;-81
2022/04/20 02:35:18;;;;;;;2.13;1.93;;;;;;;9.27;79.65;95525.69;5100749;27;20220;-81
2022/04/20 02:37:45;;;;;;;2.57;2.00;;;;;;;9.26;80.12;95535.63;5101999;28;20231;-81
2022/04/20 02:40:13;;;;;;;2.40;2.00;;;;;;;9.25;79.86;95528.63;5100614;27;20200;-81
2022/04/20 02:42:41;;;;;;;2.53;1.90;;;;;;;9.36;79.75;95537.69;5093320;28;20208;-81
2022/04/20 02:45:09;;;;;;;3.47;2.00;;;;;;;9.35;79.92;95527.97;5100260;27;20264;-81
2022/04/20 02:47:36;;;;;;;2.40;1.93;;;;;;;9.29;80.14;95535.13;5106762;27;20232;-81
2022/04/20 02:50:04;;;;;;;2.63;2.43;;;;;;;9.20;79.96;95525.00;5094032;28;20355;-81
2022/04/20 02:52:31;;;;;;;2.80;2.50;;;;;;;9.22;79.31;95536.34;5106100;27;20323;-81
2022/04/20 02:54:58;;;;;;;4.87;1.97;;;;;;;9.19;80.54;95528.75;5100994;27;20201;-81
2022/04/20 02:57:26;;;;;;;3.97;2.03;;;;;;;9.17;80.82;95533.56;5102840;27;20204;-81
2022/04/20 02:59:56;;;;;;;2.80;2.00;;;;;;;9.24;80.74;95540.44;5106476;28;20202;-81
2022/04/20 03:02:23;;;;;;;2.00;1.87;;;;;;;9.21;80.47;95532.84;5102782;27;20415;-81
2022/04/20 03:04:51;;;;;;;2.37;2.17;;;;;;;9.05;82.24;95531.75;5098048;27;20211;-80
2022/04/20 03:07:23;;;;;;;2.40;1.90;;;;;;;9.04;82.85;95535.47;5092141;28;20205;-81
2022/04/20 03:09:53;;;;;;;3.47;2.10;;;;;;;9.00;82.44;95541.59;5096910;27;20201;-80
2022/04/20 03:12:27;;;;;;;3.33;2.03;;;;;;;8.91;83.07;95533.09;5098610;28;20237;-81
2022/04/20 03:14:57;;;;;;;4.17;2.20;;;;;;;8.90;82.80;95534.16;5105487;28;20204;-81
2022/04/20 03:17:25;;;;;;;3.13;2.20;;;;;;;8.83;83.30;95541.53;5102655;27;20204;-81
2022/04/20 03:19:52;;;;;;;2.00;1.87;;;;;;;8.69;82.78;95535.59;5099427;27;20204;-81
2022/04/20 03:22:21;;;;;;;4.13;1.80;;;;;;;8.62;84.09;95539.47;5093966;27;20208;-81
2022/04/20 03:24:48;;;;;;;2.10;1.90;;;;;;;8.56;83.62;95537.75;5093542;27;20243;-81
2022/04/20 03:27:15;;;;;;;2.20;2.00;;;;;;;8.57;83.61;95528.63;5103816;27;20240;-81
2022/04/20 03:29:51;;;;;;;1.87;1.70;;;;;;;8.62;84.11;95526.03;5104943;28;20268;-81
2022/04/20 03:32:20;;;;;;;2.87;1.77;;;;;;;8.67;83.46;95531.53;5100846;28;20236;-81
2022/04/20 03:34:48;;;;;;;1.97;1.87;;;;;;;8.64;83.60;95540.06;5097593;28;20192;-81
2022/04/20 03:37:15;;;;;;;1.93;1.77;;;;;;;8.66;84.04;95540.66;5096485;28;20215;-81
2022/04/20 03:39:42;;;;;;;2.70;2.23;;;;;;;8.49;82.81;95542.44;5101044;27;20203;-81
2022/04/20 03:42:10;;;;;;;3.07;2.17;;;;;;;8.40;85.07;95543.84;5109523;27;20212;-80
2022/04/20 03:44:38;;;;;;;3.50;2.37;;;;;;;8.28;86.62;95544.66;5100026;27;20216;-81
2022/04/20 03:47:05;;;;;;;3.60;2.00;;;;;;;8.25;86.78;95539.72;5096452;28;20209;-80
2022/04/20 03:49:34;;;;;;;3.60;2.10;;;;;;;8.32;86.28;95540.47;5104965;28;20236;-81
2022/04/20 03:52:06;;;;;;;2.00;1.80;;;;;;;8.30;86.39;95536.34;5098281;28;20224;-81
2022/04/20 03:54:35;;;;;;;3.30;1.70;;;;;;;8.34;85.53;95543.72;5101588;27;20211;-81
2022/04/20 03:57:07;;;;;;;2.10;1.87;;;;;;;8.27;84.60;95531.44;5104788;28;20228;-81
2022/04/20 03:59:45;;;;;;;1.73;1.63;;;;;;;8.21;85.30;95538.56;5098691;27;20212;-81
2022/04/20 04:02:15;;;;;;;2.73;2.20;;;;;;;8.22;85.87;95540.22;5099242;27;20204;-81
2022/04/20 04:05:03;;;;;;;1.97;1.77;;;;;;;8.22;86.39;95550.16;5102347;28;20208;-81
2022/04/20 04:07:56;;;;;;;5.77;3.10;;;;;;;7.99;88.10;95548.31;5096770;28;20204;-81
2022/04/20 04:10:29;;;;;;;3.40;2.60;;;;;;;7.89;88.92;95548.06;5100814;27;20253;-80
2022/04/20 04:12:56;;;;;;;4.60;2.33;;;;;;;7.82;89.24;95544.66;5091338;28;20224;-81
2022/04/20 04:15:25;;;;;;;3.53;2.00;;;;;;;7.83;89.10;95547.09;5102428;28;20207;-81
2022/04/20 04:17:58;;;;;;;3.50;1.90;;;;;;;7.74;89.19;95537.75;5100519;27;20211;-81
2022/04/20 04:20:29;;;;;;;2.83;1.97;;;;;;;7.80;89.62;95544.06;5097772;28;20283;-81
2022/04/20 04:22:57;;;;;;;2.43;1.70;;;;;;;7.83;89.52;95540.91;5091866;28;20204;-81
2022/04/20 04:25:45;;;;;;;5.87;2.10;;;;;;;7.97;87.53;95547.72;5096974;28;20212;-80
2022/04/20 04:28:18;;;;;;;4.47;2.50;;;;;;;8.01;87.57;95550.72;5102691;27;20225;-81
2022/04/20 04:30:46;;;;;;;4.00;2.50;;;;;;;7.97;87.89;95551.22;5100314;27;20254;-80
2022/04/20 04:33:13;;;;;;;8.63;3.67;;;;;;;7.96;88.48;95552.25;5095444;27;20228;-81
2022/04/20 04:35:43;;;;;;;3.90;3.13;;;;;;;7.96;89.30;95551.44;5089687;28;20225;-80
2022/04/20 04:38:13;;;;;;;4.60;3.13;;;;;;;7.98;89.74;95550.16;5101093;28;20223;-80
2022/04/20 04:40:41;;;;;;;5.13;2.87;;;;;;;7.95;89.75;95552.50;5112349;27;20205;-81
2022/04/20 04:43:09;;;;;;;3.60;2.47;;;;;;;7.99;90.44;95556.38;5106126;27;20325;-80
2022/04/20 04:48:39;;;;;;;4.03;2.50;;;;;;;7.93;88.84;95558.09;5099207;28;20235;-80
2022/04/20 04:51:11;;;;;;;5.37;2.27;;;;;;;7.90;89.68;95558.59;5095875;28;20253;-80
2022/04/20 04:53:40;;;;;;;8.93;2.93;;;;;;;7.91;89.75;95560.19;5095526;28;20220;-80
2022/04/20 04:56:09;;;;;;;4.17;2.63;;;;;;;7.93;90.49;95566.16;5098010;28;20277;-80
2022/04/20 04:58:42;;;;;;;4.03;2.20;;;;;;;8.00;90.31;95566.03;5100197;28;20211;-80
2022/04/20 05:01:10;;;;;;;7.00;3.63;;;;;;;8.04;89.89;95569.91;5091499;28;20299;-80
2022/04/20 05:03:39;;;;;;;10.43;6.03;;;;;;;8.03;88.75;95567.44;5101658;28;20211;-80
2022/04/20 05:06:07;;;;;;;11.43;5.23;;;;;;;7.88;88.34;95557.16;5099850;28;20223;-80
2022/04/20 05:08:59;;;;;;;3.67;3.07;;;;;;;7.73;89.84;95562.19;5097039;28;20218;-79
2022/04/20 05:11:26;;;;;;;9.57;3.90;;;;;;;7.74;89.93;95569.97;5098012;28;20196;-80
2022/04/20 05:13:54;;;;;;;5.80;2.40;;;;;;;7.74;89.86;95566.50;5094853;28;20228;-79
2022/04/20 05:16:22;;;;;;;5.70;2.00;;;;;;;7.73;89.82;95565.69;5097419;28;20279;-80
2022/04/20 05:18:51;;;;;;;4.10;2.17;;;;;;;7.73;89.48;95563.00;5100416;28;20216;-80
2022/04/20 05:21:18;;;;;;;2.20;1.93;;;;;;;7.70;90.35;95571.50;5101044;28;20192;-81
2022/04/20 05:23:46;;;;;;;3.80;1.97;;;;;;;7.68;89.86;95570.91;5097886;28;20217;-80
2022/04/20 05:26:15;;;;;;;2.57;2.27;;;;;;;7.70;90.28;95565.31;5101827;28;20204;-80
2022/04/20 05:28:45;;;;;;;3.70;2.50;;;;;;;7.75;89.71;95562.75;5098263;28;20196;-80
2022/04/20 05:31:13;;;;;;;5.93;2.70;;;;;;;7.74;91.03;95558.44;5102466;28;20349;-80
2022/04/20 05:33:42;;;;;;;5.70;3.10;;;;;;;7.74;90.24;95548.47;5098282;28;20242;-80
2022/04/20 05:36:11;;;;;;;9.37;3.00;;;;;;;7.81;90.36;95551.91;5104996;28;20212;-80
2022/04/20 05:41:42;;;;;;;5.80;2.53;;;;;;;7.89;91.65;95548.06;5001024;28;20211;-80
2022/04/20 05:44:16;;;;;;;5.20;2.40;;;;;;;7.87;91.28;95542.91;5005549;28;20248;-80
2022/04/20 05:46:44;;;;;;;3.80;2.30;;;;;;;7.80;90.11;95549.44;5056681;28;20208;-80
2022/04/20 05:49:15;;;;;;;2.50;2.30;;;;;;;7.75;90.47;95541.25;5102472;28;20248;-80
2022/04/20 05:51:43;;;;;;;2.93;1.90;;;;;;;7.66;90.72;95535.41;5097769;28;20211;-80
2022/04/20 05:54:10;;;;;;;4.07;2.40;;;;;;;7.73;91.70;95538.81;5104790;28;20265;-80
2022/04/20 05:56:40;;;;;;;6.63;2.80;;;;;;;7.80;91.63;95541.38;5106445;28;20209;-81
2022/04/20 05:59:07;;;;;;;7.80;3.70;;;;;;;7.79;90.80;95545.13;5098684;28;20236;-80
2022/04/20 06:01:39;;;;;;;7.50;3.40;;;;;;;7.72;90.67;95544.41;5100961;28;20215;-80
2022/04/20 06:04:21;;;;;;;7.37;3.67;;;;;;;7.70;91.23;95536.59;5105646;27;20211;-80
2022/04/20 06:07:03;;;;;;;5.23;3.73;;;;;;;7.75;91.72;95531.31;5107541;27;20208;-81
2022/04/20 06:09:37;;;;;;;8.03;4.10;;;;;;;7.81;91.46;95537.66;5114508;27;20207;-80
2022/04/20 06:12:14;;;;;;;6.30;3.80;;;;;;;7.78;90.93;95538.09;5109724;28;20204;-80
2022/04/20 06:15:14;;;;;;;5.60;3.80;;;;;;;7.73;92.52;95538.00;5067309;27;20216;-80
2022/04/20 06:18:01;;;;;;;5.40;3.77;;;;;;;7.60;93.47;95533.63;5111501;27;20215;-80
2022/04/20 06:20:29;;;;;;;5.87;3.30;;;;;;;7.60;94.19;95531.78;5105642;28;20211;-80
2022/04/20 06:23:15;;;;;;;5.77;3.17;;;;;;;7.64;94.17;95534.00;5102594;28;20354;-80
2022/04/20 06:26:05;;;;;;;6.57;3.27;;;;;;;7.70;94.70;95533.06;5094980;28;20212;-80
2022/04/20 06:28:54;;;;;;;5.43;3.23;;;;;;;7.74;94.68;95532.38;5091499;28;20207;-80
2022/04/20 06:31:42;;;;;;;5.27;3.20;;;;;;;7.78;94.98;95524.66;5106211;28;20219;-79
2022/04/20 06:34:34;;;;;;;4.63;3.60;;;;;;;7.80;93.69;95530.63;5103846;28;20228;-81
2022/04/20 06:37:21;;;;;;;8.37;4.40;;;;;;;7.69;92.85;95524.19;5098131;27;20204;-80
2022/04/20 06:40:27;;;;;;;6.53;4.03;;;;;;;7.71;93.71;95521.28;5082257;28;20219;-80
2022/04/20 06:43:09;;;;;;;6.63;4.30;;;;;;;7.69;93.65;95518.81;5101658;27;20205;-80
2022/04/20 06:45:57;;;;;;;6.63;4.70;;;;;;;7.59;94.21;95514.00;5103754;28;20204;-80
2022/04/20 06:48:43;;;;;;;5.60;3.83;;;;;;;7.66;95.09;95511.22;5099232;28;20360;-80
2022/04/20 06:58:31;;;;;;;5.13;4.17;;;;;;;7.68;93.52;95511.81;5059843;28;20307;-80
2022/04/20 07:00:15;;;;;;;7.37;4.10;;;;;;;7.79;95.45;95496.75;5107664;27;20207;-80
2022/04/20 07:03:01;;;;;;;8.83;3.80;;;;;;;7.83;94.80;95496.03;5098312;27;20215;-80
2022/04/20 07:05:47;;;;;;;8.63;4.37;;;;;;;7.85;94.34;95495.81;5096112;28;20207;-80
2022/04/20 07:08:34;;;;;;;11.97;7.03;;;;;;;7.87;94.22;95496.41;5100497;28;20207;-80
2022/04/20 07:11:07;;;;;;;13.33;7.87;;;;;;;7.91;94.75;95489.50;5102466;28;20212;-80
2022/04/20 07:13:35;;;;;;;8.60;4.80;;;;;;;7.95;94.94;95486.13;5102872;28;20312;-80
2022/04/20 07:16:08;;;;;;;9.43;4.30;;;;;;;7.98;94.56;95490.22;5101036;28;20204;-80
2022/04/20 07:23:43;;;;;;;;;;;;;;;;;;;;;
2022/04/20 07:30:08;;;;;;;5.57;2.97;;;;;;;7.98;98.67;95463.31;4938944;29;20206;-80
2022/04/20 07:32:54;;;;;;;7.00;2.53;;;;;;;8.03;98.94;95471.50;5028098;28;20286;-80
2022/04/20 07:35:37;;;;;;;2.83;1.93;;;;;;;8.04;100.00;95464.25;5101078;27;20196;-81
2022/04/20 07:38:38;;;;;;;5.33;2.37;;;;;;;8.09;100.00;95462.47;5083103;28;20204;-81
2022/04/20 07:41:25;;;;;;;5.50;2.27;;;;;;;8.14;100.00;95461.78;5062408;28;20216;-81
2022/04/20 07:44:06;;;;;;;2.83;1.90;;;;;;;8.23;99.70;95466.56;5104751;28;20208;-80
2022/04/20 07:46:56;;;;;;;2.70;2.40;;;;;;;8.24;100.00;95462.81;5097127;28;20309;-80
2022/04/20 07:52:39;;;;;;;5.33;3.50;;;;;;;9.25;94.49;95461.28;5101613;27;20211;-81
2022/04/20 07:55:15;;;;;;;3.57;2.27;;;;;;;9.80;89.30;95466.72;5095429;28;20207;-80
2022/04/20 07:57:56;;;;;;;5.60;3.40;;;;;;;10.23;89.84;95459.81;5104048;28;20234;-80
2022/04/20 08:00:46;;;;;;;5.70;3.60;;;;;;;10.79;85.79;95463.22;5096828;27;20204;-81
2022/04/20 08:03:32;;;;;;;6.10;3.57;;;;;;;11.20;83.20;95459.88;5098400;28;20242;-80
2022/04/20 08:06:00;;;;;;;6.97;3.73;;;;;;;11.44;81.20;95465.78;5096703;28;20209;-81
2022/04/20 08:08:31;;;;;;;5.90;3.60;;;;;;;11.78;79.63;95463.66;5101341;28;20208;-81
2022/04/20 08:11:02;;;;;;;6.70;3.37;;;;;;;12.11;79.96;95463.34;5091169;28;20203;-80
2022/04/20 08:16:28;;;;;;;5.10;3.50;;;;;;;12.52;73.64;95460.84;5091405;28;20197;-80
2022/04/20 08:19:16;;;;;;;9.30;3.73;;;;;;;12.63;74.06;95457.09;5065507;28;20319;-80
2022/04/20 08:21:59;;;;;;;5.73;3.30;;;;;;;12.98;70.55;95459.13;5096129;27;20208;-81
2022/04/20 08:24:26;;;;;;;5.27;3.60;;;;;;;13.15;70.14;95461.63;5119572;27;20219;-81
2022/04/20 08:26:55;;;;;;;5.73;3.43;;;;;;;13.30;67.40;95461.66;5102663;28;20206;-81
2022/04/20 08:29:22;;;;;;;4.23;3.37;;;;;;;13.27;67.14;95463.00;5103403;28;20240;-81
2022/04/20 08:31:49;;;;;;;8.47;3.80;;;;;;;13.47;64.08;95456.81;5103721;28;20249;-81
2022/04/20 08:34:16;;;;;;;4.77;3.67;;;;;;;13.65;64.03;95463.59;5100254;28;20220;-81
2022/04/20 08:36:45;;;;;;;5.00;3.73;;;;;;;13.78;63.17;95463.03;5104229;28;20200;-81
2022/04/20 08:39:12;;;;;;;6.80;3.10;;;;;;;13.80;61.81;95476.34;5093925;28;20220;-81
2022/04/20 08:41:42;;;;;;;5.07;3.50;;;;;;;13.93;61.93;95473.09;5097243;28;20209;-80
2022/04/20 08:44:14;;;;;;;7.40;3.77;;;;;;;13.99;61.98;95463.88;5098204;28;20304;-81
2022/04/20 08:46:43;;;;;;;6.27;3.63;;;;;;;13.96;61.22;95470.63;5108896;27;20192;-81
2022/04/20 08:49:10;;;;;;;4.00;3.60;;;;;;;14.11;62.33;95469.84;5103280;28;20556;-80
2022/04/20 08:54:20;;;;;;;5.03;3.70;;;;;;;14.23;62.17;95459.47;5096778;28;20259;-81
2022/04/20 08:59:36;;;;;;;4.93;3.70;;;;;;;14.54;61.06;95457.53;5104373;28;20212;-81
2022/04/20 09:02:04;;;;;;;6.60;3.90;;;;;;;14.47;60.64;95456.19;5097179;28;20208;-81
2022/04/20 09:04:31;;;;;;;5.77;3.47;;;;;;;14.80;59.54;95458.25;5095487;28;20200;-81
2022/04/20 09:06:58;;;;;;;6.03;3.40;;;;;;;14.99;59.46;95461.16;5101067;28;20265;-81
2022/04/20 09:09:29;;;;;;;5.57;3.70;;;;;;;15.12;56.31;95458.66;5102651;28;20205;-81
2022/04/20 09:11:57;;;;;;;4.23;3.67;;;;;;;14.98;57.14;95462.25;5103659;28;20204;-81
2022/04/20 09:14:25;;;;;;;4.20;3.80;;;;;;;15.09;58.00;95461.09;5103893;28;20230;-81
2022/04/20 09:16:55;;;;;;;4.17;3.77;;;;;;;14.93;58.40;95446.78;5105944;28;20223;-81
2022/04/20 09:19:25;;;;;;;4.80;3.80;;;;;;;14.98;56.80;95454.09;5100124;28;20205;-81
2022/04/20 09:21:52;;;;;;;7.13;4.00;;;;;;;15.00;57.58;95455.44;5093612;28;20201;-82
2022/04/20 09:24:19;;;;;;;6.17;3.90;;;;;;;14.93;55.46;95452.22;5104979;28;20232;-81
2022/04/20 09:26:53;;;;;;;5.77;4.20;;;;;;;15.09;57.65;95455.66;5087905;28;20219;-81
2022/04/20 09:29:21;;;;;;;4.63;3.80;;;;;;;15.26;56.33;95449.84;5110377;27;20239;-82
2022/04/20 09:31:50;;;;;;;4.37;3.67;;;;;;;15.40;55.87;95446.22;5105823;27;20258;-82
2022/04/20 09:34:53;;;;;;;4.77;4.10;;;;;;;15.44;54.61;95446.47;5121839;27;20243;-82
2022/04/20 09:37:22;;;;;;;6.37;4.43;;;;;;;15.33;54.72;95434.03;5103626;28;20318;-81
2022/04/20 09:39:51;;;;;;;5.03;3.80;;;;;;;15.50;56.49;95439.91;5104265;27;20211;-82
2022/04/20 09:42:18;;;;;;;5.13;4.03;;;;;;;15.38;56.03;95447.63;5098092;28;20292;-81
2022/04/20 09:45:04;;;;;;;5.27;3.90;;;;;;;15.58;56.08;95446.69;5096521;28;20209;-82
2022/04/20 09:50:24;;;;;;;11.33;4.73;;;;;;;15.76;54.93;95444.09;5096123;27;20305;-81
2022/04/20 09:52:55;;;;;;;6.27;4.07;;;;;;;15.85;54.49;95442.38;5108469;28;20208;-81
2022/04/20 09:55:31;;;;;;;4.70;3.83;;;;;;;15.94;54.43;95445.28;5098794;27;20216;-81
2022/04/20 09:58:12;;;;;;;4.77;4.30;;;;;;;15.97;53.51;95442.00;5104963;28;20212;-81
2022/04/20 10:00:41;;;;;;;5.90;4.40;;;;;;;16.01;53.99;95439.50;5105181;28;20208;-81
2022/04/20 10:03:08;;;;;;;8.53;4.30;;;;;;;15.97;52.87;95433.84;5105437;27;20205;-81
2022/04/20 10:05:38;;;;;;;4.60;4.13;;;;;;;15.86;53.16;95432.31;5103317;28;20220;-81
2022/04/20 10:08:05;;;;;;;4.83;4.33;;;;;;;15.95;53.28;95427.88;5109480;28;20205;-81
2022/04/20 10:10:34;;;;;;;4.63;4.13;;;;;;;16.03;52.37;95429.16;5102438;27;20270;-81
2022/04/20 10:13:03;;;;;;;4.87;4.37;;;;;;;16.14;52.34;95427.97;5098941;28;20205;-81
2022/04/20 10:18:19;;;;;;;4.80;4.10;;;;;;;16.40;51.77;95426.59;5104321;27;20234;-82
2022/04/20 10:20:50;;;;;;;5.17;4.30;;;;;;;16.26;51.20;95415.56;5103458;28;20209;-82
2022/04/20 10:23:20;;;;;;;6.53;4.70;;;;;;;16.27;51.87;95419.09;5098399;28;20271;-82
2022/04/20 10:25:50;;;;;;;6.03;4.67;;;;;;;16.28;51.74;95409.84;5105616;28;20192;-82
2022/04/20 10:28:24;;;;;;;5.00;4.50;;;;;;;16.32;52.66;95410.91;5096696;27;20250;-82
2022/04/20 10:31:02;;;;;;;6.93;4.63;;;;;;;16.63;51.16;95414.09;5100821;28;20208;-82
2022/04/20 10:33:31;;;;;;;5.10;4.57;;;;;;;16.48;51.15;95406.91;5103983;28;20200;-82
2022/04/20 10:36:15;;;;;;;7.50;4.70;;;;;;;16.62;50.38;95407.84;5104286;27;20221;-82
2022/04/20 10:38:48;;;;;;;5.33;4.67;;;;;;;16.74;51.29;95403.91;5118100;27;20204;-82
2022/04/20 10:41:32;;;;;;;6.93;5.10;;;;;;;16.72;50.49;95406.91;5101740;28;20211;-82
2022/04/20 10:44:05;;;;;;;6.57;4.93;;;;;;;16.64;51.15;95400.19;5103395;28;20215;-81
2022/04/20 10:46:32;;;;;;;5.87;4.30;;;;;;;16.85;50.43;95389.81;5106081;27;20196;-82
2022/04/20 10:49:02;;;;;;;5.77;5.10;;;;;;;16.96;50.19;95391.31;5105518;28;20235;-81
2022/04/20 10:51:42;;;;;;;6.20;5.30;;;;;;;16.93;50.80;95400.06;5089614;27;20208;-82
2022/04/20 10:54:30;;;;;;;5.73;4.93;;;;;;;17.01;50.28;95393.97;5116786;27;20243;-82
2022/04/20 10:57:13;;;;;;;5.70;5.00;;;;;;;16.97;50.27;95390.22;5102678;28;20207;-82
2022/04/20 10:59:41;;;;;;;5.00;4.60;;;;;;;16.97;49.50;95392.13;5103705;28;20547;-82
2022/04/20 11:02:13;;;;;;;5.87;5.07;;;;;;;17.28;49.36;95390.59;5109541;28;20204;-81
2022/04/20 11:04:43;;;;;;;5.50;4.70;;;;;;;17.32;49.49;95383.44;5106922;28;20200;-82
2022/04/20 11:07:26;;;;;;;8.20;5.00;;;;;;;17.30;49.53;95395.75;5105312;27;20201;-81
2022/04/20 11:10:06;;;;;;;6.10;5.50;;;;;;;17.14;49.41;95386.97;5101474;28;20239;-81
2022/04/20 11:18:39;;;;;;;5.87;5.27;;;;;;;17.47;49.59;95367.94;5097074;27;20203;-81
2022/04/20 11:21:26;;;;;;;6.60;5.17;;;;;;;17.36;48.35;95367.28;5079869;28;20223;-81
2022/04/20 11:24:01;;;;;;;6.17;5.43;;;;;;;17.68;48.42;95372.00;5104011;28;20221;-81
2022/04/20 11:26:30;;;;;;;6.43;5.70;;;;;;;17.69;48.39;95370.88;5105075;28;20268;-81
2022/04/20 11:28:59;;;;;;;6.47;5.50;;;;;;;17.82;48.77;95369.28;5116212;27;20681;-81
2022/04/20 11:31:26;;;;;;;6.97;5.53;;;;;;;17.90;48.04;95376.81;5101366;28;20265;-81
2022/04/20 11:33:54;;;;;;;9.40;6.07;;;;;;;18.05;48.52;95365.59;5104425;27;20196;-81
2022/04/20 11:36:22;;;;;;;7.50;5.40;;;;;;;18.21;48.30;95369.66;5107140;28;20207;-81
2022/04/20 11:38:50;;;;;;;8.40;5.70;;;;;;;17.87;48.77;95366.47;5101979;28;20201;-82
2022/04/20 11:41:20;;;;;;;8.07;5.57;;;;;;;17.98;47.94;95363.25;5103741;28;20215;-81
2022/04/20 11:43:49;;;;;;;7.10;5.70;;;;;;;18.20;47.03;95361.78;5096862;28;20240;-82
2022/04/20 11:46:20;;;;;;;6.53;5.87;;;;;;;18.42;47.00;95350.97;5102130;27;20204;-82
2022/04/20 11:48:55;;;;;;;9.23;6.00;;;;;;;18.63;45.91;95354.91;5120873;27;20232;-81
2022/04/20 11:51:30;;;;;;;7.67;6.03;;;;;;;18.59;46.80;95362.13;5098921;28;20236;-81
2022/04/20 11:53:58;;;;;;;7.57;5.07;;;;;;;18.70;46.79;95352.59;5092726;28;20228;-81
2022/04/20 11:56:53;;;;;;;7.13;6.23;;;;;;;19.02;45.73;95356.28;5104698;27;20207;-82
2022/04/20 11:59:21;;;;;;;7.00;5.50;;;;;;;18.89;45.31;95349.72;5108633;28;20257;-85
2022/04/20 12:01:48;;;;;;;7.17;5.83;;;;;;;18.90;45.19;95356.81;5105249;28;20203;-85
2022/04/20 12:04:18;;;;;;;8.47;5.80;;;;;;;18.72;46.13;95338.59;5104202;28;20215;-86
2022/04/20 12:06:48;;;;;;;6.83;6.10;;;;;;;18.86;45.30;95348.44;5106372;28;20211;-85
2022/04/20 12:09:16;;;;;;;8.20;5.70;;;;;;;18.99;45.51;95348.69;5102049;28;20207;-86
2022/04/20 12:11:44;;;;;;;6.73;6.07;;;;;;;19.06;44.54;95338.13;5106726;28;20200;-85
2022/04/20 12:14:12;;;;;;;7.43;6.47;;;;;;;18.98;45.37;95336.13;5098397;27;20204;-86
2022/04/20 12:16:41;;;;;;;6.83;5.60;;;;;;;19.03;45.52;95334.09;5106946;28;20204;-86
2022/04/20 12:19:11;;;;;;;8.57;6.07;;;;;;;19.16;44.79;95335.97;5106884;28;20204;-87
2022/04/20 12:21:48;;;;;;;8.87;5.70;;;;;;;19.10;45.06;95333.69;5107648;27;20211;-85
2022/04/20 12:24:21;;;;;;;6.13;5.53;;;;;;;19.05;45.39;95331.06;5099993;28;20239;-85
2022/04/20 12:26:49;;;;;;;7.67;5.63;;;;;;;19.24;45.13;95328.97;5097789;28;20212;-87
2022/04/20 12:29:21;;;;;;;9.13;5.73;;;;;;;19.24;43.59;95337.16;5102085;28;20257;-87
2022/04/20 12:31:50;;;;;;;7.67;6.17;;;;;;;18.96;45.47;95344.66;5102402;28;20303;-87
2022/04/20 12:34:19;;;;;;;6.80;6.10;;;;;;;19.06;44.99;95338.13;5100340;28;20208;-86
2022/04/20 12:36:54;;;;;;;6.70;6.00;;;;;;;19.31;44.75;95337.53;5099593;28;20200;-89
2022/04/20 12:39:36;;;;;;;7.67;6.10;;;;;;;19.18;44.34;95324.72;5118861;27;20219;-89
2022/04/20 12:42:07;;;;;;;13.57;5.50;;;;;;;19.25;45.35;95319.63;5098109;28;20200;-89
2022/04/20 12:44:52;;;;;;;6.38;5.78;;;;;;;19.38;43.52;95321.53;5109551;27;20205;-88
2022/04/20 12:47:36;;;;;;;7.50;6.00;;;;;;;19.25;43.32;95309.50;5103693;28;20199;-88
2022/04/20 12:50:27;;;;;;;8.27;5.80;;;;;;;19.24;44.46;95307.06;5092087;28;20232;-88
2022/04/20 12:52:56;;;;;;;6.53;5.90;;;;;;;19.43;44.94;95304.97;5096451;28;20213;-89
2022/04/20 12:55:24;;;;;;;6.87;6.17;;;;;;;19.38;43.90;95313.31;5106494;28;20227;-87